Time;durP1;ratioP1;P1;durP2;ratioP2;P2;SDS_P1;SDS_P2;PMS_P1;PMS_P2;Temp;Humidity;BMP_temperature;BMP_pressure;BME280_temperature;BME280_humidity;BME280_pressure;Samples;Min_cycle;Max_cycle;Signal;HPM_P1;HPM_P2
2021/04/01 05:05:43;;;;;;;0.00;0.00;;;;;;;;;;5095807;28;19909;-60
2021/04/01 05:08:09;;;;;;;0.00;0.00;;;;;;;;;;5089075;28;20550;-61
2021/04/01 05:10:35;;;;;;;0.28;0.28;;;;;;;;;;5085464;28;20037;-60
2021/04/01 05:15:30;;;;;;;0.00;0.00;;;;;;;;;;5090316;28;20078;-60
2021/04/01 05:18:12;;;;;;;0.08;0.08;;;;;;;;;;5092850;28;20048;-60
2021/04/01 05:20:38;;;;;;;0.00;0.00;;;;;;;;;;5096688;28;20020;-60
2021/04/01 05:23:10;;;;;;;0.00;0.00;;;;;;;;;;5088823;28;20385;-61
2021/04/01 05:25:36;;;;;;;0.00;0.00;;;;;;;;;;5085303;28;20039;-61
2021/04/01 05:28:16;;;;;;;0.00;0.00;;;;;;;;;;5092268;28;20484;-60
2021/04/01 05:30:43;;;;;;;1.73;1.58;;;;;;;;;;5090677;28;20068;-60
2021/04/01 05:33:09;;;;;;;0.00;0.00;;;;;;;;;;5086350;28;20025;-61
2021/04/01 05:35:35;;;;;;;0.00;0.00;;;;;;;;;;5090327;28;20028;-60
2021/04/01 05:38:01;;;;;;;0.43;0.43;;;;;;;;;;5088269;28;20016;-61
2021/04/01 05:40:28;;;;;;;0.10;0.10;;;;;;;;;;5084935;28;20071;-60
2021/04/01 05:42:56;;;;;;;0.45;0.45;;;;;;;;;;5092056;28;20488;-61
2021/04/01 05:47:52;;;;;;;0.68;0.68;;;;;;;;;;5089380;28;20074;-61
2021/04/01 05:53:38;;;;;;;0.08;0.08;;;;;;;;;;5085773;28;20025;-62
2021/04/01 06:01:28;;;;;;;0.10;0.10;;;;;;;;;;5097856;28;20036;-61
2021/04/01 06:04:01;;;;;;;0.10;0.10;;;;;;;;;;5071329;28;20034;-61
2021/04/01 06:06:46;;;;;;;0.20;0.20;;;;;;;;;;5069471;28;20083;-60
2021/04/01 06:09:20;;;;;;;0.00;0.00;;;;;;;;;;5067358;28;20035;-61
2021/04/01 06:11:50;;;;;;;0.45;0.32;;;;;;;;;;5067548;28;20051;-61
2021/04/01 06:14:17;;;;;;;3.05;2.80;;;;;;;;;;5067942;28;20099;-61
2021/04/01 06:16:44;;;;;;;0.55;0.55;;;;;;;;;;5069754;28;20107;-61
2021/04/01 06:19:12;;;;;;;0.15;0.15;;;;;;;;;;5072179;28;20063;-61
2021/04/01 06:21:40;;;;;;;3.20;1.17;;;;;;;;;;5070446;28;20418;-61
2021/04/01 06:24:19;;;;;;;0.28;0.28;;;;;;;;;;5069768;28;20054;-61
2021/04/01 06:26:49;;;;;;;0.00;0.00;;;;;;;;;;5069783;28;20056;-61
2021/04/01 06:29:18;;;;;;;0.00;0.00;;;;;;;;;;5069625;28;20036;-61
2021/04/01 06:31:46;;;;;;;0.00;0.00;;;;;;;;;;5069456;28;20494;-61
2021/04/01 06:34:13;;;;;;;0.00;0.00;;;;;;;;;;5071592;28;20123;-61
2021/04/01 06:36:51;;;;;;;0.10;0.10;;;;;;;;;;5069917;28;20025;-61
2021/04/01 06:39:22;;;;;;;0.20;0.20;;;;;;;;;;5061954;28;20031;-62
2021/04/01 06:41:49;;;;;;;0.10;0.10;;;;;;;;;;5066476;28;20036;-61
2021/04/01 06:44:41;;;;;;;0.05;0.05;;;;;;;;;;5069379;28;20024;-61
2021/04/01 06:47:12;;;;;;;0.00;0.00;;;;;;;;;;5066679;28;20516;-62
2021/04/01 06:50:05;;;;;;;0.00;0.00;;;;;;;;;;5069081;28;20029;-61
2021/04/01 06:52:34;;;;;;;0.00;0.00;;;;;;;;;;5053612;28;20522;-62
2021/04/01 07:03:01;;;;;;;0.00;0.00;;;;;;;;;;5066849;28;20070;-61
2021/04/01 07:05:37;;;;;;;0.00;0.00;;;;;;;;;;5069090;28;20073;-62
2021/04/01 07:08:06;;;;;;;0.00;0.00;;;;;;;;;;5069074;28;20410;-62
2021/04/01 07:10:53;;;;;;;0.00;0.00;;;;;;;;;;5063441;28;20497;-61
2021/04/01 07:13:25;;;;;;;0.00;0.00;;;;;;;;;;5069700;28;20039;-61
2021/04/01 07:15:55;;;;;;;0.00;0.00;;;;;;;;;;5070677;28;20107;-61
2021/04/01 07:18:31;;;;;;;0.00;0.00;;;;;;;;;;5067973;28;20033;-62
2021/04/01 07:21:30;;;;;;;0.00;0.00;;;;;;;;;;5068755;28;20031;-62
2021/04/01 07:48:21;;;;;;;0.10;0.10;;;;;;;;;;5067797;28;20485;-62
2021/04/01 07:50:47;;;;;;;0.00;0.00;;;;;;;;;;5068126;28;20123;-61
2021/04/01 07:53:21;;;;;;;0.45;0.45;;;;;;;;;;5067957;28;20025;-62
2021/04/01 08:06:08;;;;;;;1.00;0.45;;;;;;;;;;5067609;28;20044;-62
2021/04/01 08:08:36;;;;;;;0.00;0.00;;;;;;;;;;5067308;28;20104;-61
2021/04/01 08:11:04;;;;;;;1.10;1.10;;;;;;;;;;5068152;28;20036;-62
2021/04/01 08:13:35;;;;;;;0.22;0.22;;;;;;;;;;5052877;28;20021;-62
2021/04/01 08:16:07;;;;;;;0.35;0.35;;;;;;;;;;5066820;28;20069;-61
2021/04/01 08:18:37;;;;;;;0.00;0.00;;;;;;;;;;5069825;28;20033;-61
2021/04/01 08:21:08;;;;;;;0.10;0.10;;;;;;;;;;5067095;28;20028;-62
2021/04/01 08:23:36;;;;;;;0.65;0.65;;;;;;;;;;5068666;28;20029;-61
2021/04/01 08:33:41;;;;;;;0.28;0.28;;;;;;;;;;5068159;28;20512;-62
2021/04/01 08:36:10;;;;;;;0.00;0.00;;;;;;;;;;5067514;28;20017;-62
2021/04/01 08:38:38;;;;;;;0.00;0.00;;;;;;;;;;5068031;28;20048;-62
2021/04/01 08:41:08;;;;;;;0.63;0.63;;;;;;;;;;5072607;28;20033;-72
2021/04/01 08:43:57;;;;;;;0.00;0.00;;;;;;;;;;5082634;28;20013;-69
2021/04/01 08:46:23;;;;;;;0.00;0.00;;;;;;;;;;5085617;28;20023;-60
2021/04/01 08:48:55;;;;;;;0.00;0.00;;;;;;;;;;5095826;28;20023;-62
2021/04/01 08:51:31;;;;;;;0.00;0.00;;;;;;;;;;5095142;28;20033;-65
2021/04/01 08:54:20;;;;;;;0.10;0.10;;;;;;;;;;5095114;28;20024;-67
2021/04/01 08:56:57;;;;;;;1.00;1.00;;;;;;;;;;5096695;28;20076;-72
2021/04/01 08:59:23;;;;;;;0.00;0.00;;;;;;;;;;5093229;28;20017;-74
2021/04/01 09:01:52;;;;;;;0.70;0.55;;;;;;;;;;5091109;28;20053;-70
2021/04/01 09:04:22;;;;;;;0.00;0.00;;;;;;;;;;5067519;28;20040;-62
2021/04/01 09:06:49;;;;;;;3.28;2.67;;;;;;;;;;5069193;28;20485;-61
2021/04/01 09:09:22;;;;;;;0.00;0.00;;;;;;;;;;5068882;28;20505;-61
2021/04/01 09:12:11;;;;;;;0.22;0.22;;;;;;;;;;5066867;28;20032;-61
2021/04/01 09:14:40;;;;;;;1.25;0.70;;;;;;;;;;5066620;28;20039;-62
2021/04/01 09:17:12;;;;;;;0.00;0.00;;;;;;;;;;5067435;28;20017;-62
2021/04/01 09:19:39;;;;;;;0.00;0.00;;;;;;;;;;5067701;28;20020;-62
2021/04/01 09:22:20;;;;;;;0.10;0.10;;;;;;;;;;5070390;28;20032;-61
2021/04/01 09:24:52;;;;;;;0.00;0.00;;;;;;;;;;5069680;28;20063;-61
2021/04/01 09:27:18;;;;;;;6.05;0.77;;;;;;;;;;5067383;28;20060;-61
2021/04/01 09:29:45;;;;;;;1.83;1.63;;;;;;;;;;5066515;28;20037;-61
2021/04/01 09:32:12;;;;;;;0.20;0.10;;;;;;;;;;5058207;28;20051;-62
2021/04/01 09:34:39;;;;;;;0.95;0.57;;;;;;;;;;5067463;28;20028;-62
2021/04/01 09:37:17;;;;;;;0.00;0.00;;;;;;;;;;5068486;28;20128;-62
2021/04/01 09:39:44;;;;;;;0.20;0.20;;;;;;;;;;5070754;28;20021;-62
2021/04/01 09:42:11;;;;;;;0.40;0.38;;;;;;;;;;5068918;28;20115;-62
2021/04/01 09:44:48;;;;;;;0.55;0.45;;;;;;;;;;5068110;28;20028;-62
2021/04/01 09:47:17;;;;;;;0.00;0.00;;;;;;;;;;5068073;28;20509;-62
2021/04/01 09:49:46;;;;;;;0.90;0.43;;;;;;;;;;5068334;28;20032;-61
2021/04/01 09:52:13;;;;;;;3.35;0.38;;;;;;;;;;5071726;28;20025;-62
2021/04/01 09:54:44;;;;;;;4.07;2.60;;;;;;;;;;5070999;28;20101;-61
2021/04/01 09:57:10;;;;;;;0.32;0.32;;;;;;;;;;5071642;28;20086;-62
2021/04/01 09:59:53;;;;;;;1.17;1.08;;;;;;;;;;5070483;28;20100;-62
2021/04/01 10:02:29;;;;;;;0.00;0.00;;;;;;;;;;5070176;28;20049;-62
2021/04/01 10:05:04;;;;;;;1.38;0.80;;;;;;;;;;5070825;28;20025;-62
2021/04/01 10:07:36;;;;;;;1.35;1.35;;;;;;;;;;5055344;28;20035;-62
2021/04/01 10:10:04;;;;;;;4.00;0.28;;;;;;;;;;5070184;28;20048;-62
2021/04/01 10:12:37;;;;;;;0.55;0.47;;;;;;;;;;5068891;28;20043;-62
2021/04/01 10:15:10;;;;;;;1.85;1.27;;;;;;;;;;5070443;28;20021;-62
2021/04/01 10:17:36;;;;;;;0.00;0.00;;;;;;;;;;5070507;28;20109;-62
2021/04/01 10:20:02;;;;;;;0.35;0.35;;;;;;;;;;5070542;28;20029;-62
2021/04/01 10:22:29;;;;;;;0.15;0.13;;;;;;;;;;5071746;28;20124;-62
2021/04/01 10:25:09;;;;;;;0.40;0.40;;;;;;;;;;5073802;28;20025;-62
2021/04/01 10:27:42;;;;;;;0.00;0.00;;;;;;;;;;5072448;28;20028;-62
2021/04/01 10:30:09;;;;;;;0.08;0.08;;;;;;;;;;5070251;28;20035;-62
2021/04/01 10:32:53;;;;;;;0.43;0.43;;;;;;;;;;5071961;28;20474;-62
2021/04/01 10:35:24;;;;;;;0.55;0.55;;;;;;;;;;5070092;28;20116;-62
2021/04/01 10:37:52;;;;;;;0.00;0.00;;;;;;;;;;5068976;28;20025;-62
2021/04/01 10:40:20;;;;;;;0.15;0.15;;;;;;;;;;5071951;28;20025;-62
2021/04/01 10:42:47;;;;;;;0.10;0.10;;;;;;;;;;5071769;28;20139;-63
2021/04/01 10:45:20;;;;;;;0.10;0.10;;;;;;;;;;5069850;28;20021;-63
2021/04/01 10:47:50;;;;;;;0.85;0.85;;;;;;;;;;5070531;28;20020;-63
2021/04/01 10:50:17;;;;;;;1.65;1.17;;;;;;;;;;5070640;28;20520;-61
2021/04/01 10:52:44;;;;;;;2.00;1.90;;;;;;;;;;5070534;28;20052;-61
2021/04/01 10:55:11;;;;;;;0.45;0.40;;;;;;;;;;5071497;28;20044;-62
2021/04/01 10:57:38;;;;;;;0.75;0.75;;;;;;;;;;5070882;28;20116;-62
2021/04/01 11:00:14;;;;;;;0.00;0.00;;;;;;;;;;5070326;28;20024;-62
2021/04/01 11:02:42;;;;;;;1.55;1.45;;;;;;;;;;5068816;28;20747;-63
2021/04/01 11:05:08;;;;;;;0.00;0.00;;;;;;;;;;5068974;28;20028;-62
2021/04/01 11:07:43;;;;;;;0.00;0.00;;;;;;;;;;5068990;28;20067;-62
2021/04/01 11:10:10;;;;;;;0.10;0.10;;;;;;;;;;5069076;28;20524;-62
2021/04/01 11:12:37;;;;;;;0.00;0.00;;;;;;;;;;5070333;28;20036;-62
2021/04/01 11:15:07;;;;;;;0.43;0.30;;;;;;;;;;5068656;28;20059;-62
2021/04/01 11:17:37;;;;;;;2.25;0.65;;;;;;;;;;5069027;28;20029;-63
2021/04/01 11:20:04;;;;;;;0.85;0.85;;;;;;;;;;5069337;28;20037;-62
2021/04/01 11:22:30;;;;;;;4.85;2.20;;;;;;;;;;5060318;28;20051;-62
2021/04/01 11:24:57;;;;;;;0.28;0.28;;;;;;;;;;5072301;28;20028;-63
2021/04/01 11:27:23;;;;;;;0.00;0.00;;;;;;;;;;5068533;28;20039;-62
2021/04/01 11:29:53;;;;;;;0.75;0.57;;;;;;;;;;5068899;28;20025;-62
2021/04/01 11:32:21;;;;;;;2.92;0.43;;;;;;;;;;5063126;28;20036;-63
2021/04/01 11:34:48;;;;;;;0.63;0.63;;;;;;;;;;5067796;28;20025;-62
2021/04/01 11:37:17;;;;;;;1.55;0.75;;;;;;;;;;5071373;28;20118;-63
2021/04/01 11:39:43;;;;;;;0.65;0.45;;;;;;;;;;5070012;28;20029;-62
2021/04/01 11:42:10;;;;;;;0.00;0.00;;;;;;;;;;5068884;28;20047;-63
2021/04/01 11:44:37;;;;;;;1.35;1.27;;;;;;;;;;5068866;28;20482;-63
2021/04/01 11:47:18;;;;;;;0.17;0.17;;;;;;;;;;5068355;28;20032;-63
2021/04/01 11:49:45;;;;;;;2.90;1.23;;;;;;;;;;5055017;28;20364;-63
2021/04/01 11:52:12;;;;;;;1.08;0.52;;;;;;;;;;5071008;28;20028;-62
2021/04/01 11:54:39;;;;;;;0.95;0.93;;;;;;;;;;5069237;28;20066;-63
2021/04/01 11:57:17;;;;;;;0.28;0.28;;;;;;;;;;5068321;28;20419;-63
2021/04/01 11:59:52;;;;;;;0.15;0.15;;;;;;;;;;5068286;28;20072;-62
2021/04/01 12:02:21;;;;;;;0.15;0.15;;;;;;;;;;5067705;28;20494;-62
2021/04/01 12:04:50;;;;;;;1.10;0.30;;;;;;;;;;5068382;28;20060;-63
2021/04/01 12:07:16;;;;;;;10.23;5.60;;;;;;;;;;5070866;28;20039;-63
2021/04/01 12:09:45;;;;;;;0.13;0.13;;;;;;;;;;5069625;28;20386;-62
2021/04/01 12:12:12;;;;;;;1.20;0.93;;;;;;;;;;5067570;28;20493;-62
2021/04/01 12:14:39;;;;;;;0.80;0.80;;;;;;;;;;5067704;28;20039;-62
2021/04/01 12:17:08;;;;;;;5.60;1.60;;;;;;;;;;5067715;28;20055;-63
2021/04/01 12:19:34;;;;;;;0.10;0.10;;;;;;;;;;5067859;28;20104;-63
2021/04/01 12:22:18;;;;;;;1.35;0.70;;;;;;;;;;5070664;28;20560;-63
2021/04/01 12:24:44;;;;;;;1.65;0.65;;;;;;;;;;5069170;28;20547;-62
2021/04/01 12:27:11;;;;;;;22.48;2.38;;;;;;;;;;5068146;28;20051;-62
2021/04/01 12:29:50;;;;;;;2.60;2.42;;;;;;;;;;5068205;28;20028;-62
2021/04/01 12:32:25;;;;;;;3.70;1.38;;;;;;;;;;5068012;28;20037;-63
2021/04/01 12:34:51;;;;;;;0.20;0.20;;;;;;;;;;5068269;28;20078;-62
2021/04/01 12:37:17;;;;;;;0.08;0.08;;;;;;;;;;5070071;28;20070;-63
2021/04/01 12:39:44;;;;;;;0.00;0.00;;;;;;;;;;5069540;28;20406;-63
2021/04/01 12:42:12;;;;;;;0.10;0.00;;;;;;;;;;5067877;28;20064;-63
2021/04/01 12:44:43;;;;;;;2.08;0.80;;;;;;;;;;5066510;28;20044;-63
2021/04/01 12:47:09;;;;;;;10.20;1.05;;;;;;;;;;5067222;28;20025;-62
2021/04/01 12:49:36;;;;;;;0.20;0.20;;;;;;;;;;5068059;28;20017;-62
2021/04/01 12:52:03;;;;;;;0.90;0.55;;;;;;;;;;5070688;28;20028;-62
2021/04/01 12:54:36;;;;;;;1.65;0.08;;;;;;;;;;5068107;28;20393;-63
2021/04/01 12:57:07;;;;;;;0.77;0.77;;;;;;;;;;5067973;28;20020;-63
2021/04/01 12:59:48;;;;;;;1.65;0.32;;;;;;;;;;5067585;28;20090;-63
2021/04/01 13:02:20;;;;;;;0.15;0.05;;;;;;;;;;5067588;28;20093;-63
2021/04/01 13:04:58;;;;;;;3.55;1.92;;;;;;;;;;5067378;28;20163;-63
2021/04/01 13:12:49;;;;;;;1.02;0.38;;;;;;;;;;5049989;28;20037;-63
2021/04/01 13:15:15;;;;;;;4.03;0.73;;;;;;;;;;5051468;28;20033;-63
2021/04/01 13:17:42;;;;;;;5.05;1.20;;;;;;;;;;5051846;28;20033;-63
2021/04/01 13:20:08;;;;;;;0.00;0.00;;;;;;;;;;5051778;28;20108;-62
2021/04/01 13:22:55;;;;;;;5.47;0.93;;;;;;;;;;5051521;28;20049;-63
2021/04/01 13:25:21;;;;;;;0.00;0.00;;;;;;;;;;5051441;28;20029;-62
2021/04/01 13:27:50;;;;;;;0.40;0.22;;;;;;;;;;5051948;28;20044;-62
2021/04/01 13:30:18;;;;;;;1.75;1.65;;;;;;;;;;5051210;28;20031;-63
2021/04/01 13:38:14;;;;;;;0.10;0.10;;;;;;;;;;5051066;28;20033;-63
2021/04/01 13:40:43;;;;;;;6.05;0.82;;;;;;;;;;5051243;28;20037;-63
2021/04/01 13:43:11;;;;;;;4.78;0.47;;;;;;;;;;5051270;28;20037;-63
2021/04/01 13:45:39;;;;;;;0.20;0.20;;;;;;;;;;5051324;28;20052;-64
2021/04/01 13:48:08;;;;;;;0.10;0.10;;;;;;;;;;5067583;28;20025;-63
2021/04/01 13:50:41;;;;;;;0.63;0.40;;;;;;;;;;5070701;28;20181;-63
2021/04/01 13:55:45;;;;;;;0.00;0.00;;;;;;;;;;5069307;28;20197;-62
2021/04/01 14:11:40;;;;;;;7.05;0.55;;;;;;;;;;5068605;28;20036;-62
2021/04/01 14:14:07;;;;;;;0.40;0.40;;;;;;;;;;5068349;28;20067;-63
2021/04/01 14:16:34;;;;;;;1.75;1.15;;;;;;;;;;5068645;28;20047;-63
2021/04/01 14:19:01;;;;;;;1.48;0.50;;;;;;;;;;5071479;28;20567;-62
2021/04/01 14:21:27;;;;;;;5.78;0.70;;;;;;;;;;5067558;28;20078;-62
2021/04/01 14:23:54;;;;;;;6.72;1.23;;;;;;;;;;5067674;28;20012;-62
2021/04/01 14:28:47;;;;;;;4.35;1.40;;;;;;;;;;5066379;28;20048;-63
2021/04/01 14:31:13;;;;;;;1.42;1.38;;;;;;;;;;5055735;28;20044;-63
2021/04/01 14:33:40;;;;;;;0.70;0.68;;;;;;;;;;5072697;28;20142;-63
2021/04/01 14:36:07;;;;;;;1.48;0.73;;;;;;;;;;5070156;28;20050;-63
2021/04/01 14:38:35;;;;;;;9.88;3.00;;;;;;;;;;5069896;28;20054;-62
2021/04/01 14:41:06;;;;;;;0.50;0.45;;;;;;;;;;5069422;28;20177;-62
2021/04/01 14:43:38;;;;;;;6.82;1.65;;;;;;;;;;5053817;28;20031;-62
2021/04/01 14:46:05;;;;;;;1.00;0.85;;;;;;;;;;5068320;28;20529;-62
2021/04/01 14:48:31;;;;;;;0.75;0.75;;;;;;;;;;5071150;28;20104;-63
2021/04/01 14:50:57;;;;;;;9.13;1.08;;;;;;;;;;5069288;28;20024;-63
2021/04/01 14:53:46;;;;;;;4.00;2.35;;;;;;;;;;5069423;28;20021;-63
2021/04/01 14:56:12;;;;;;;1.48;0.77;;;;;;;;;;5069175;28;20115;-62
2021/04/01 14:58:39;;;;;;;0.00;0.00;;;;;;;;;;5069869;28;20025;-63
2021/04/01 15:01:05;;;;;;;1.20;1.20;;;;;;;;;;5070744;28;20044;-62
2021/04/01 15:03:35;;;;;;;0.00;0.00;;;;;;;;;;5069838;28;20441;-62
2021/04/01 15:06:01;;;;;;;2.13;1.27;;;;;;;;;;5069404;28;20039;-62
2021/04/01 15:08:28;;;;;;;0.70;0.70;;;;;;;;;;5068726;28;20024;-62
2021/04/01 15:10:55;;;;;;;3.20;2.45;;;;;;;;;;5067646;28;20028;-62
2021/04/01 15:13:21;;;;;;;0.75;0.65;;;;;;;;;;5070686;28;20059;-63
2021/04/01 15:15:48;;;;;;;0.40;0.40;;;;;;;;;;5072382;28;20078;-62
2021/04/01 15:18:15;;;;;;;1.02;0.65;;;;;;;;;;5067015;28;20534;-63
2021/04/01 15:20:41;;;;;;;0.30;0.30;;;;;;;;;;5068930;28;20103;-63
2021/04/01 15:23:07;;;;;;;0.85;0.73;;;;;;;;;;5068950;28;20475;-64
2021/04/01 15:25:33;;;;;;;0.00;0.00;;;;;;;;;;5067442;28;20134;-62
2021/04/01 15:27:59;;;;;;;0.43;0.43;;;;;;;;;;5072399;28;20085;-63
2021/04/01 15:30:25;;;;;;;0.00;0.00;;;;;;;;;;5068007;28;20028;-62
2021/04/01 15:32:52;;;;;;;0.60;0.47;;;;;;;;;;5068493;28;20402;-63
2021/04/01 15:35:18;;;;;;;2.00;1.88;;;;;;;;;;5068272;28;20073;-63
2021/04/01 15:37:44;;;;;;;2.50;1.48;;;;;;;;;;5070052;28;20537;-63
2021/04/01 15:40:11;;;;;;;0.00;0.00;;;;;;;;;;5070712;28;20033;-62
2021/04/01 15:42:37;;;;;;;0.00;0.00;;;;;;;;;;5069814;28;20044;-62
2021/04/01 15:45:04;;;;;;;0.40;0.30;;;;;;;;;;5068493;28;20016;-63
2021/04/01 15:47:31;;;;;;;5.78;3.55;;;;;;;;;;5067905;28;20033;-63
2021/04/01 15:49:57;;;;;;;11.90;3.95;;;;;;;;;;5061542;28;20032;-62
2021/04/01 15:52:23;;;;;;;3.65;2.67;;;;;;;;;;5065894;28;20035;-64
2021/04/01 15:54:49;;;;;;;1.20;1.13;;;;;;;;;;5068222;28;20329;-62
2021/04/01 15:57:16;;;;;;;1.98;1.17;;;;;;;;;;5069257;28;20032;-62
2021/04/01 15:59:42;;;;;;;1.45;0.68;;;;;;;;;;5069119;28;20024;-62
2021/04/01 16:02:08;;;;;;;12.30;3.25;;;;;;;;;;5059330;28;20507;-63
2021/04/01 16:04:34;;;;;;;3.67;2.83;;;;;;;;;;5056138;28;20482;-62
2021/04/01 16:07:00;;;;;;;2.90;2.75;;;;;;;;;;5066457;28;20046;-62
2021/04/01 16:09:27;;;;;;;1.75;1.65;;;;;;;;;;5078127;28;20077;-62
2021/04/01 16:11:53;;;;;;;0.55;0.40;;;;;;;;;;5061733;28;20465;-62
2021/04/01 16:14:19;;;;;;;0.38;0.38;;;;;;;;;;5059030;28;20390;-62
2021/04/01 16:16:45;;;;;;;3.80;2.92;;;;;;;;;;5060842;28;20664;-62
2021/04/01 16:19:13;;;;;;;0.75;0.75;;;;;;;;;;5074702;28;20075;-62
2021/04/01 16:21:39;;;;;;;1.42;1.42;;;;;;;;;;5072151;28;20064;-62
2021/04/01 16:24:05;;;;;;;7.53;3.03;;;;;;;;;;5065986;28;20115;-62
2021/04/01 16:26:32;;;;;;;10.85;3.38;;;;;;;;;;5070825;28;20032;-62
2021/04/01 16:28:58;;;;;;;12.85;4.15;;;;;;;;;;5063877;28;20359;-62
2021/04/01 16:31:26;;;;;;;6.90;2.95;;;;;;;;;;5059286;28;20063;-62
2021/04/01 16:33:54;;;;;;;12.80;4.75;;;;;;;;;;5072484;28;20769;-62
2021/04/01 16:36:22;;;;;;;8.10;3.33;;;;;;;;;;5069837;28;20023;-62
2021/04/01 16:38:48;;;;;;;14.18;5.05;;;;;;;;;;5072514;28;20016;-61
2021/04/01 16:41:14;;;;;;;1.80;0.57;;;;;;;;;;5069614;28;20036;-62
2021/04/01 16:43:40;;;;;;;8.13;7.57;;;;;;;;;;5076734;28;20068;-62
2021/04/01 16:46:06;;;;;;;0.75;0.75;;;;;;;;;;5070764;28;20024;-62
2021/04/01 16:48:32;;;;;;;9.07;6.03;;;;;;;;;;5068448;28;20063;-62
2021/04/01 16:50:59;;;;;;;13.68;1.65;;;;;;;;;;5069462;28;20024;-62
2021/04/01 16:53:26;;;;;;;3.03;1.27;;;;;;;;;;5070979;28;20024;-61
2021/04/01 16:55:54;;;;;;;1.65;1.45;;;;;;;;;;5065313;28;20029;-63
2021/04/01 16:58:25;;;;;;;19.77;6.20;;;;;;;;;;5062591;28;20169;-62
2021/04/01 17:00:53;;;;;;;0.35;0.35;;;;;;;;;;5068868;28;20134;-61
2021/04/01 17:03:19;;;;;;;4.30;2.47;;;;;;;;;;5059719;28;20036;-63
2021/04/01 17:05:45;;;;;;;17.27;7.03;;;;;;;;;;5069474;28;20020;-63
2021/04/01 17:08:11;;;;;;;15.25;5.68;;;;;;;;;;5069472;28;20020;-63
2021/04/01 17:10:37;;;;;;;10.23;3.20;;;;;;;;;;5066190;28;20029;-63
2021/04/01 17:13:04;;;;;;;22.13;7.72;;;;;;;;;;5072194;28;20486;-63
2021/04/01 17:15:30;;;;;;;25.65;8.75;;;;;;;;;;5070485;28;20036;-63
2021/04/01 17:17:56;;;;;;;17.70;4.15;;;;;;;;;;5070017;28;20025;-63
2021/04/01 17:20:22;;;;;;;6.40;4.05;;;;;;;;;;5069772;28;20024;-63
2021/04/01 17:22:49;;;;;;;6.40;2.47;;;;;;;;;;5064786;28;20044;-63
2021/04/01 17:25:15;;;;;;;4.35;2.55;;;;;;;;;;5068039;28;20028;-63
2021/04/01 17:27:42;;;;;;;4.22;1.20;;;;;;;;;;5083496;28;20032;-63
2021/04/01 17:30:09;;;;;;;4.18;2.58;;;;;;;;;;5082605;28;20077;-63
2021/04/01 17:32:35;;;;;;;7.00;4.43;;;;;;;;;;5070370;28;20035;-63
2021/04/01 17:35:01;;;;;;;17.75;8.32;;;;;;;;;;5070938;28;20020;-63
2021/04/01 17:37:27;;;;;;;18.63;2.80;;;;;;;;;;5068456;28;20033;-63
2021/04/01 17:39:53;;;;;;;13.05;5.97;;;;;;;;;;5074587;28;20429;-62
2021/04/01 17:42:19;;;;;;;4.05;3.75;;;;;;;;;;5071085;28;20032;-63
2021/04/01 17:44:45;;;;;;;3.03;2.25;;;;;;;;;;5071262;28;20112;-62
2021/04/01 17:47:11;;;;;;;14.55;7.65;;;;;;;;;;5066979;28;20032;-63
2021/04/01 17:49:38;;;;;;;31.25;8.80;;;;;;;;;;5056061;28;20087;-62
2021/04/01 17:52:04;;;;;;;6.82;4.70;;;;;;;;;;5070484;28;20031;-62
2021/04/01 17:54:30;;;;;;;18.00;7.65;;;;;;;;;;5067547;28;20028;-63
2021/04/01 17:56:57;;;;;;;2.28;2.17;;;;;;;;;;5068882;28;20025;-63
2021/04/01 18:00:13;;;;;;;1.58;1.48;;;;;;;;;;5067185;28;20024;-63
2021/04/01 18:02:10;;;;;;;5.45;2.53;;;;;;;;;;5067327;28;20405;-63
2021/04/01 18:22:03;;;;;;;0.38;0.38;;;;;;;;;;5072141;28;20021;-62
2021/04/01 18:26:06;;;;;;;2.60;2.50;;;;;;;;;;5063033;28;20112;-62
2021/04/01 18:31:16;;;;;;;0.00;0.00;;;;;;;;;;5070531;28;20060;-61
2021/04/01 18:33:46;;;;;;;6.70;4.60;;;;;;;;;;5069578;28;20078;-62
2021/04/01 18:36:32;;;;;;;8.02;3.00;;;;;;;;;;5070973;28;20028;-61
2021/04/01 18:43:56;;;;;;;27.15;6.15;;;;;;;;;;5068384;28;20028;-62
2021/04/01 18:46:27;;;;;;;1.35;1.25;;;;;;;;;;5071524;28;20071;-62
2021/04/01 18:48:58;;;;;;;3.03;1.95;;;;;;;;;;5072184;28;20584;-61
2021/04/01 18:51:27;;;;;;;4.43;1.70;;;;;;;;;;5069707;28;20401;-61
2021/04/01 18:53:58;;;;;;;4.85;2.25;;;;;;;;;;5069241;28;20103;-62
2021/04/01 18:56:28;;;;;;;1.00;0.77;;;;;;;;;;5069463;28;20024;-61
2021/04/01 18:59:05;;;;;;;0.00;0.00;;;;;;;;;;5069420;28;20123;-62
2021/04/01 19:04:17;;;;;;;15.80;5.95;;;;;;;;;;5067010;28;20490;-60
2021/04/01 19:06:51;;;;;;;7.25;2.42;;;;;;;;;;5066735;28;20455;-62
2021/04/01 19:22:48;;;;;;;2.90;1.15;;;;;;;;;;5050565;28;20652;-62
2021/04/01 19:25:15;;;;;;;4.28;1.58;;;;;;;;;;5068110;28;20024;-62
2021/04/01 19:27:42;;;;;;;6.65;1.92;;;;;;;;;;5067763;28;20086;-62
2021/04/01 19:30:12;;;;;;;4.03;1.83;;;;;;;;;;5066613;28;20020;-61
2021/04/01 19:32:38;;;;;;;4.63;2.97;;;;;;;;;;5066616;28;20025;-62
2021/04/01 19:35:06;;;;;;;0.25;0.25;;;;;;;;;;5066743;28;20031;-62
2021/04/01 19:37:32;;;;;;;3.63;3.00;;;;;;;;;;5049592;28;20020;-61
2021/04/01 19:39:58;;;;;;;0.52;0.52;;;;;;;;;;5069084;28;20112;-61
2021/04/01 19:42:30;;;;;;;0.65;0.65;;;;;;;;;;5065966;28;20043;-62
2021/04/01 19:45:02;;;;;;;0.20;0.20;;;;;;;;;;5066064;28;20031;-62
2021/04/01 19:47:28;;;;;;;0.00;0.00;;;;;;;;;;5066551;28;20032;-62
2021/04/01 19:49:54;;;;;;;0.40;0.40;;;;;;;;;;5067974;28;20028;-61
2021/04/01 19:52:21;;;;;;;2.35;1.10;;;;;;;;;;5067854;28;20035;-62
2021/04/01 19:54:48;;;;;;;1.40;1.30;;;;;;;;;;5069950;28;20034;-61
2021/04/01 19:57:15;;;;;;;2.10;0.52;;;;;;;;;;5065646;28;20414;-62
2021/04/01 19:59:42;;;;;;;17.63;3.65;;;;;;;;;;5064543;28;20492;-62
2021/04/01 20:02:10;;;;;;;4.50;3.17;;;;;;;;;;5067970;28;20071;-62
2021/04/01 20:04:36;;;;;;;1.83;1.73;;;;;;;;;;5067446;28;20024;-62
2021/04/01 20:07:03;;;;;;;2.13;1.38;;;;;;;;;;5071501;28;20120;-61
2021/04/01 20:09:31;;;;;;;2.50;2.17;;;;;;;;;;5070218;28;20398;-62
2021/04/01 20:11:58;;;;;;;2.65;2.33;;;;;;;;;;5069662;28;20032;-61
2021/04/01 20:14:25;;;;;;;25.05;6.05;;;;;;;;;;5068356;28;20014;-62
2021/04/01 20:16:51;;;;;;;0.73;0.30;;;;;;;;;;5068556;28;20025;-62
2021/04/01 20:19:19;;;;;;;1.48;1.38;;;;;;;;;;5068972;28;20032;-61
2021/04/01 20:21:45;;;;;;;4.25;2.42;;;;;;;;;;5068749;28;20052;-61
2021/04/01 20:24:11;;;;;;;23.15;4.72;;;;;;;;;;5068045;28;20367;-62
2021/04/01 20:26:41;;;;;;;9.23;3.35;;;;;;;;;;5067989;28;20035;-61
2021/04/01 20:29:07;;;;;;;1.85;1.75;;;;;;;;;;5067822;28;20478;-62
